Time;durP1;ratioP1;P1;durP2;ratioP2;P2;SDS_P1;SDS_P2;PMS_P1;PMS_P2;Temp;Humidity;BMP_temperature;BMP_pressure;BME280_temperature;BME280_humidity;BME280_pressure;Samples;Min_cycle;Max_cycle;Signal;HPM_P1;HPM_P2
2022/10/25 00:01:19;;;;;;;0.93;0.93;;;11.40;99.90;;;;;;5095056;28;20173;-71
2022/10/25 00:03:45;;;;;;;1.73;1.73;;;11.30;99.90;;;;;;5094941;28;20164;-70
2022/10/25 00:06:12;;;;;;;0.50;0.50;;;11.30;99.90;;;;;;5094508;28;20514;-68
2022/10/25 00:08:38;;;;;;;0.38;0.38;;;11.20;99.90;;;;;;5094433;28;20435;-70
2022/10/25 00:11:05;;;;;;;1.25;1.23;;;11.30;99.90;;;;;;5094203;28;20254;-70
2022/10/25 00:13:32;;;;;;;0.60;0.60;;;11.30;99.90;;;;;;5094464;28;20169;-68
2022/10/25 00:15:57;;;;;;;0.40;0.40;;;11.30;99.90;;;;;;5094518;28;20169;-70
2022/10/25 00:18:23;;;;;;;0.30;0.30;;;11.30;99.90;;;;;;5094405;28;20234;-68
2022/10/25 00:20:49;;;;;;;0.40;0.40;;;11.30;99.90;;;;;;5094193;28;20346;-69
2022/10/25 00:23:15;;;;;;;0.40;0.40;;;11.20;99.90;;;;;;5094205;28;20169;-68
2022/10/25 00:25:41;;;;;;;0.63;0.63;;;11.10;99.90;;;;;;5094205;28;20649;-70
2022/10/25 00:28:06;;;;;;;0.40;0.40;;;10.70;99.90;;;;;;5094208;28;20230;-70
2022/10/25 00:30:32;;;;;;;0.93;0.53;;;;;;;;;;5093928;28;20275;-71
2022/10/25 00:32:59;;;;;;;0.45;0.45;;;11.10;99.90;;;;;;5094235;28;20176;-68
2022/10/25 00:35:24;;;;;;;0.40;0.40;;;11.10;99.90;;;;;;5094025;28;20180;-67
2022/10/25 00:37:50;;;;;;;0.50;0.50;;;11.10;99.90;;;;;;5094034;28;20520;-70
2022/10/25 00:40:17;;;;;;;0.40;0.40;;;11.20;99.90;;;;;;5093645;28;20189;-70
2022/10/25 00:42:42;;;;;;;0.30;0.30;;;11.20;99.90;;;;;;5094033;28;20614;-71
2022/10/25 00:45:22;;;;;;;0.30;0.30;;;11.30;99.90;;;;;;5093796;28;20216;-70
2022/10/25 00:47:59;;;;;;;0.50;0.50;;;11.20;99.90;;;;;;5093906;28;20260;-71
2022/10/25 00:50:32;;;;;;;0.75;0.75;;;11.10;99.90;;;;;;5093665;28;20196;-71
2022/10/25 00:53:05;;;;;;;0.30;0.30;;;11.10;99.90;;;;;;5093908;28;20511;-70
2022/10/25 00:55:31;;;;;;;0.30;0.30;;;11.00;99.90;;;;;;5093937;28;20618;-71
2022/10/25 00:58:07;;;;;;;0.30;0.30;;;11.00;99.90;;;;;;5093701;28;20176;-71
2022/10/25 01:00:34;;;;;;;0.30;0.30;;;11.00;99.90;;;;;;5093586;28;20532;-69
2022/10/25 01:03:00;;;;;;;0.30;0.30;;;10.90;99.90;;;;;;5093564;28;20638;-71
2022/10/25 01:05:26;;;;;;;0.88;0.47;;;11.00;99.90;;;;;;5093668;28;20296;-70
2022/10/25 01:07:52;;;;;;;0.40;0.40;;;11.00;99.90;;;;;;5093731;28;20278;-68
2022/10/25 01:10:17;;;;;;;0.40;0.40;;;10.90;99.90;;;;;;5093279;28;20446;-69
2022/10/25 01:12:43;;;;;;;0.30;0.30;;;10.80;99.90;;;;;;5093409;28;20586;-71
2022/10/25 01:15:09;;;;;;;0.43;0.43;;;10.70;99.90;;;;;;5093840;28;20541;-69
2022/10/25 01:17:52;;;;;;;0.50;0.40;;;10.60;99.90;;;;;;5093680;28;20172;-69
2022/10/25 01:20:36;;;;;;;0.60;0.60;;;10.60;99.90;;;;;;5093174;28;20189;-71
2022/10/25 01:23:13;;;;;;;0.30;0.30;;;10.60;99.90;;;;;;5093694;28;20172;-69
2022/10/25 01:25:48;;;;;;;0.80;0.80;;;10.50;99.90;;;;;;5093391;28;20605;-71
2022/10/25 01:28:26;;;;;;;0.30;0.30;;;10.50;99.90;;;;;;5093526;28;20168;-70
2022/10/25 01:31:03;;;;;;;1.80;0.70;;;10.40;99.90;;;;;;5096294;28;20184;-68
2022/10/25 01:34:00;;;;;;;0.30;0.30;;;10.40;99.90;;;;;;5096182;28;20664;-70
2022/10/25 01:36:35;;;;;;;0.52;0.52;;;10.40;99.90;;;;;;5097612;28;20204;-70
2022/10/25 01:39:32;;;;;;;0.50;0.50;;;10.40;99.90;;;;;;5097137;28;20195;-69
2022/10/25 01:42:16;;;;;;;0.63;0.63;;;10.40;99.90;;;;;;5077518;28;20173;-71
2022/10/25 01:45:14;;;;;;;0.45;0.45;;;10.50;99.90;;;;;;5097361;28;20568;-71
2022/10/25 01:47:44;;;;;;;0.40;0.40;;;10.50;99.90;;;;;;5097183;28;20226;-69
2022/10/25 01:50:26;;;;;;;0.30;0.30;;;10.40;99.90;;;;;;5096867;28;20208;-70
2022/10/25 01:52:52;;;;;;;1.40;1.30;;;10.40;99.90;;;;;;5097049;28;20215;-71
2022/10/25 01:55:20;;;;;;;1.57;1.20;;;10.30;99.90;;;;;;5097172;28;20172;-69
2022/10/25 01:58:16;;;;;;;0.30;0.30;;;10.10;99.90;;;;;;5097144;28;20579;-71
2022/10/25 02:01:01;;;;;;;0.30;0.30;;;10.00;99.90;;;;;;5096860;28;20169;-68
2022/10/25 02:03:38;;;;;;;0.30;0.30;;;10.00;99.90;;;;;;5097068;28;20184;-69
2022/10/25 02:06:15;;;;;;;0.50;0.50;;;10.00;99.90;;;;;;5096977;28;20324;-70
2022/10/25 02:08:48;;;;;;;0.40;0.40;;;10.00;99.90;;;;;;5096873;28;20196;-68
2022/10/25 02:11:22;;;;;;;0.63;0.63;;;10.00;99.90;;;;;;5096822;28;20165;-71
2022/10/25 02:14:06;;;;;;;0.40;0.40;;;10.00;99.90;;;;;;5096653;28;20161;-68
2022/10/25 02:16:46;;;;;;;0.70;0.70;;;9.90;99.90;;;;;;5096774;28;20172;-72
2022/10/25 02:19:16;;;;;;;0.40;0.40;;;9.80;99.90;;;;;;5096485;28;20562;-69
2022/10/25 02:21:45;;;;;;;0.50;0.50;;;9.80;99.90;;;;;;5096918;28;20543;-71
2022/10/25 02:24:18;;;;;;;0.30;0.30;;;9.90;99.90;;;;;;5096644;28;20176;-69
2022/10/25 02:26:46;;;;;;;0.75;0.75;;;9.90;99.90;;;;;;5096284;28;20196;-68
2022/10/25 02:29:13;;;;;;;0.93;0.93;;;10.10;99.90;;;;;;5096231;28;20700;-69
2022/10/25 02:31:39;;;;;;;0.30;0.30;;;10.20;99.90;;;;;;5096318;28;20259;-69
2022/10/25 02:34:05;;;;;;;0.40;0.40;;;10.20;99.90;;;;;;5096485;28;20211;-72
2022/10/25 02:36:31;;;;;;;0.37;0.37;;;10.30;99.90;;;;;;5096283;28;20395;-70
2022/10/25 02:38:58;;;;;;;0.40;0.40;;;10.40;99.90;;;;;;5096055;28;20202;-68
2022/10/25 02:41:23;;;;;;;0.60;0.60;;;10.50;99.90;;;;;;5094636;28;20456;-71
2022/10/25 02:43:50;;;;;;;0.30;0.30;;;;;;;;;;5096087;28;20173;-70
2022/10/25 02:46:18;;;;;;;0.30;0.30;;;10.60;99.90;;;;;;5096025;28;20222;-71
2022/10/25 02:48:44;;;;;;;0.50;0.50;;;10.60;99.90;;;;;;5095785;28;20195;-70
2022/10/25 02:51:10;;;;;;;0.30;0.30;;;10.70;99.90;;;;;;5095923;28;20208;-71
2022/10/25 02:53:36;;;;;;;0.95;0.95;;;10.70;99.90;;;;;;5096014;28;20176;-71
2022/10/25 02:56:08;;;;;;;0.40;0.40;;;10.70;99.90;;;;;;5096015;28;20164;-71
2022/10/25 02:58:37;;;;;;;0.40;0.40;;;10.70;99.90;;;;;;5095866;28;20245;-70
2022/10/25 03:01:04;;;;;;;0.30;0.30;;;10.60;99.90;;;;;;5095608;28;20705;-71
2022/10/25 03:03:30;;;;;;;0.60;0.60;;;10.50;99.90;;;;;;5095903;28;20669;-71
2022/10/25 03:05:56;;;;;;;0.30;0.30;;;10.40;99.90;;;;;;5095789;28;20172;-69
2022/10/25 03:08:22;;;;;;;0.30;0.30;;;10.40;99.90;;;;;;5095710;28;20296;-72
2022/10/25 03:10:48;;;;;;;0.30;0.30;;;10.40;99.90;;;;;;5095229;28;20192;-71
2022/10/25 03:13:13;;;;;;;0.50;0.50;;;10.40;99.90;;;;;;5095393;28;20172;-71
2022/10/25 03:15:39;;;;;;;0.30;0.30;;;10.40;99.90;;;;;;5095499;28;20461;-69
2022/10/25 03:18:05;;;;;;;1.10;1.07;;;10.50;99.90;;;;;;5095412;28;20399;-69
2022/10/25 03:20:30;;;;;;;0.60;0.60;;;10.50;99.90;;;;;;5095351;28;20179;-69
2022/10/25 03:22:56;;;;;;;0.30;0.30;;;;;;;;;;5094247;28;20168;-71
2022/10/25 03:25:22;;;;;;;1.33;1.05;;;10.40;99.90;;;;;;5095295;28;20177;-71
2022/10/25 03:27:48;;;;;;;0.57;0.57;;;10.40;99.90;;;;;;5095500;28;20251;-69
2022/10/25 03:30:14;;;;;;;0.33;0.33;;;10.30;99.90;;;;;;5094876;28;20737;-70
2022/10/25 03:32:40;;;;;;;0.30;0.30;;;10.40;99.90;;;;;;5095319;28;20171;-72
2022/10/25 03:35:06;;;;;;;0.30;0.30;;;10.30;99.90;;;;;;5095321;28;20718;-70
2022/10/25 03:37:32;;;;;;;0.30;0.30;;;10.30;99.90;;;;;;5095238;28;20589;-68
2022/10/25 03:39:57;;;;;;;0.30;0.30;;;10.40;99.90;;;;;;5094729;28;20197;-71
2022/10/25 03:42:23;;;;;;;0.30;0.30;;;10.40;99.90;;;;;;5094880;28;20172;-69
2022/10/25 03:44:49;;;;;;;0.30;0.30;;;10.40;99.90;;;;;;5094945;28;20176;-72
2022/10/25 03:47:15;;;;;;;0.50;0.50;;;10.40;99.90;;;;;;5095146;28;20538;-71
2022/10/25 03:49:40;;;;;;;0.30;0.30;;;10.50;99.90;;;;;;5094461;28;20207;-71
2022/10/25 03:52:06;;;;;;;0.30;0.30;;;10.50;99.90;;;;;;5094471;28;20252;-70
2022/10/25 03:54:32;;;;;;;0.40;0.40;;;10.60;99.90;;;;;;5094566;28;20205;-69
2022/10/25 03:56:59;;;;;;;0.90;0.68;;;10.60;99.90;;;;;;5095104;28;20168;-72
2022/10/25 03:59:24;;;;;;;0.70;0.70;;;10.70;99.90;;;;;;5094348;28;20184;-69
2022/10/25 04:01:50;;;;;;;0.30;0.30;;;10.70;99.90;;;;;;5094777;28;20173;-70
2022/10/25 04:04:16;;;;;;;0.30;0.30;;;10.80;99.90;;;;;;5093150;28;20423;-69
2022/10/25 04:06:41;;;;;;;0.60;0.60;;;10.60;99.90;;;;;;5094594;28;20177;-68
2022/10/25 04:09:07;;;;;;;3.13;2.90;;;10.60;99.90;;;;;;5094236;28;20197;-70
2022/10/25 04:11:33;;;;;;;0.93;0.57;;;10.60;99.90;;;;;;5094563;28;20183;-71
2022/10/25 04:13:58;;;;;;;0.30;0.30;;;10.50;99.90;;;;;;5094384;28;20333;-70
2022/10/25 04:16:25;;;;;;;0.30;0.30;;;10.50;99.90;;;;;;5094609;28;20176;-70
2022/10/25 04:18:52;;;;;;;0.30;0.30;;;10.30;99.90;;;;;;5094104;28;20187;-70
2022/10/25 04:21:21;;;;;;;0.70;0.57;;;10.30;99.90;;;;;;5094253;28;20172;-71
2022/10/25 04:23:48;;;;;;;0.30;0.30;;;10.20;99.90;;;;;;5094325;28;20252;-69
2022/10/25 04:26:16;;;;;;;0.30;0.30;;;10.20;99.90;;;;;;5094026;28;20297;-72
2022/10/25 04:28:43;;;;;;;0.30;0.30;;;10.10;99.90;;;;;;5094188;28;20615;-68
2022/10/25 04:31:10;;;;;;;0.30;0.30;;;10.10;99.90;;;;;;5073623;28;20209;-69
2022/10/25 04:33:35;;;;;;;0.30;0.30;;;10.10;99.90;;;;;;5073626;28;20170;-69
2022/10/25 04:36:01;;;;;;;0.30;0.30;;;;;;;;;;5073830;28;20422;-69
2022/10/25 04:38:27;;;;;;;0.30;0.30;;;10.30;99.90;;;;;;5073595;28;20197;-69
2022/10/25 04:40:57;;;;;;;0.73;0.73;;;10.30;99.90;;;;;;5073533;28;20773;-70
2022/10/25 04:43:25;;;;;;;0.30;0.30;;;10.30;99.90;;;;;;5073938;28;20166;-68
2022/10/25 04:45:51;;;;;;;0.40;0.40;;;10.40;99.90;;;;;;5073589;28;20647;-70
2022/10/25 04:48:17;;;;;;;0.88;0.88;;;10.50;99.90;;;;;;5073670;28;20165;-72
2022/10/25 04:50:43;;;;;;;0.40;0.40;;;10.30;99.90;;;;;;5073236;28;20193;-70
2022/10/25 04:53:09;;;;;;;0.50;0.50;;;10.40;99.90;;;;;;5073495;28;20166;-72
2022/10/25 04:55:35;;;;;;;0.50;0.47;;;10.40;99.90;;;;;;5073468;28;20257;-71
2022/10/25 04:58:01;;;;;;;0.88;0.88;;;;;;;;;;5073592;28;20881;-69
2022/10/25 05:00:27;;;;;;;0.57;0.57;;;10.50;99.90;;;;;;5073452;28;20173;-71
2022/10/25 05:02:53;;;;;;;0.60;0.60;;;10.60;99.90;;;;;;5073560;28;20665;-71
2022/10/25 05:05:20;;;;;;;0.30;0.30;;;10.60;99.90;;;;;;5072725;28;20256;-68
2022/10/25 05:07:46;;;;;;;0.32;0.32;;;10.50;99.90;;;;;;5073592;28;20177;-71
2022/10/25 05:10:12;;;;;;;0.40;0.40;;;10.50;99.90;;;;;;5073103;28;20243;-70
2022/10/25 05:12:38;;;;;;;0.40;0.40;;;10.40;99.90;;;;;;5073433;28;20880;-69
2022/10/25 05:15:05;;;;;;;1.70;1.60;;;10.40;99.90;;;;;;5073421;28;20162;-68
2022/10/25 05:17:31;;;;;;;0.45;0.45;;;10.40;99.90;;;;;;5073360;28;20549;-71
2022/10/25 05:19:57;;;;;;;0.50;0.50;;;10.40;99.90;;;;;;5073073;28;20268;-70
2022/10/25 05:22:23;;;;;;;0.50;0.50;;;10.30;99.90;;;;;;5073239;28;20208;-70
2022/10/25 05:24:49;;;;;;;0.40;0.40;;;10.30;99.90;;;;;;5073205;28;20403;-71
2022/10/25 05:27:15;;;;;;;2.00;0.93;;;10.40;99.90;;;;;;5073400;28;20534;-71
2022/10/25 05:29:41;;;;;;;0.30;0.30;;;10.50;99.90;;;;;;5072939;28;20450;-69
2022/10/25 05:32:07;;;;;;;0.55;0.55;;;10.50;99.90;;;;;;5073111;28;20173;-71
2022/10/25 05:34:33;;;;;;;1.27;1.27;;;10.50;99.90;;;;;;5072986;28;20162;-69
2022/10/25 05:36:58;;;;;;;0.40;0.40;;;10.60;99.90;;;;;;5073120;28;20282;-71
2022/10/25 05:39:24;;;;;;;0.43;0.43;;;10.60;99.90;;;;;;5072933;28;20196;-71
2022/10/25 05:41:50;;;;;;;0.40;0.40;;;10.50;99.90;;;;;;5073251;28;20399;-70
2022/10/25 05:44:16;;;;;;;0.30;0.30;;;10.40;99.90;;;;;;5073217;28;20205;-72
2022/10/25 05:46:43;;;;;;;2.33;1.23;;;10.50;99.90;;;;;;5073187;28;20169;-69
2022/10/25 05:49:09;;;;;;;0.50;0.50;;;10.50;99.90;;;;;;5072838;28;20846;-71
2022/10/25 05:51:35;;;;;;;0.30;0.30;;;10.50;99.90;;;;;;5073082;28;20577;-69
2022/10/25 05:54:04;;;;;;;0.40;0.40;;;10.40;99.90;;;;;;5073311;28;20205;-72
2022/10/25 05:56:30;;;;;;;0.40;0.40;;;10.30;99.90;;;;;;5073060;28;20396;-69
2022/10/25 05:58:56;;;;;;;0.60;0.60;;;10.20;99.90;;;;;;5072492;28;20193;-71
2022/10/25 06:01:24;;;;;;;0.30;0.30;;;10.10;99.90;;;;;;5072958;28;20652;-72
2022/10/25 06:03:52;;;;;;;0.30;0.30;;;10.20;99.90;;;;;;5071539;28;20491;-70
2022/10/25 06:06:18;;;;;;;0.40;0.40;;;10.30;99.90;;;;;;5072795;28;20174;-71
2022/10/25 06:08:44;;;;;;;0.50;0.50;;;10.30;99.90;;;;;;5072936;28;20182;-71
2022/10/25 06:11:16;;;;;;;0.30;0.30;;;10.30;99.90;;;;;;5072663;28;20201;-68
2022/10/25 06:13:42;;;;;;;0.50;0.50;;;10.20;99.90;;;;;;5072928;28;20193;-71
2022/10/25 06:16:10;;;;;;;0.30;0.30;;;10.20;99.90;;;;;;5074569;28;20205;-71
2022/10/25 06:18:37;;;;;;;0.50;0.47;;;10.10;99.90;;;;;;5076193;28;20481;-71
2022/10/25 06:21:07;;;;;;;0.30;0.30;;;10.10;99.90;;;;;;5075763;28;20184;-70
2022/10/25 06:23:36;;;;;;;0.30;0.30;;;10.10;99.90;;;;;;5076285;28;20248;-68
2022/10/25 06:26:04;;;;;;;0.30;0.30;;;10.20;99.90;;;;;;5074772;28;20657;-72
2022/10/25 06:28:30;;;;;;;0.40;0.40;;;10.20;99.90;;;;;;5076217;28;20254;-70
2022/10/25 06:31:03;;;;;;;0.30;0.30;;;10.10;99.90;;;;;;5075840;28;20674;-70
2022/10/25 06:33:30;;;;;;;0.40;0.40;;;10.10;99.90;;;;;;5076058;28;20574;-71
2022/10/25 06:36:00;;;;;;;0.40;0.40;;;10.10;99.90;;;;;;5076072;28;20504;-68
2022/10/25 06:38:27;;;;;;;0.60;0.60;;;10.10;99.90;;;;;;5076084;28;20662;-72
2022/10/25 06:41:01;;;;;;;0.43;0.43;;;10.20;99.90;;;;;;5075877;28;20219;-69
2022/10/25 06:43:27;;;;;;;0.75;0.75;;;10.20;99.90;;;;;;5075846;28;20582;-72
2022/10/25 06:45:53;;;;;;;0.90;0.40;;;10.10;99.90;;;;;;5076185;28;20170;-70
2022/10/25 06:48:19;;;;;;;1.13;1.13;;;10.10;99.90;;;;;;5075776;28;20404;-71
2022/10/25 06:50:44;;;;;;;0.82;0.40;;;10.10;99.90;;;;;;5075934;28;20451;-69
2022/10/25 06:53:10;;;;;;;0.30;0.30;;;10.10;99.90;;;;;;5075877;28;20176;-71
2022/10/25 06:55:36;;;;;;;0.30;0.30;;;10.20;99.90;;;;;;5075782;28;20177;-70
2022/10/25 06:58:01;;;;;;;0.30;0.30;;;10.20;99.90;;;;;;5075808;28;20166;-69
2022/10/25 07:00:27;;;;;;;0.50;0.50;;;10.30;99.90;;;;;;5075469;28;20170;-70
2022/10/25 07:02:57;;;;;;;1.43;1.03;;;10.30;99.90;;;;;;5075579;28;20259;-71
2022/10/25 07:05:23;;;;;;;0.30;0.30;;;10.40;99.90;;;;;;5075520;28;20619;-70
2022/10/25 07:07:50;;;;;;;0.40;0.40;;;10.40;99.90;;;;;;5075506;28;20192;-70
2022/10/25 07:10:16;;;;;;;0.30;0.30;;;10.50;99.90;;;;;;5074911;28;20221;-68
2022/10/25 07:12:42;;;;;;;3.92;2.03;;;10.60;99.90;;;;;;5075270;28;20196;-69
2022/10/25 07:15:08;;;;;;;0.30;0.30;;;10.70;99.90;;;;;;5075265;28;20576;-72
2022/10/25 07:17:34;;;;;;;0.40;0.40;;;10.90;99.90;;;;;;5075287;28;20566;-68
2022/10/25 07:20:00;;;;;;;0.50;0.40;;;11.60;99.90;;;;;;5075109;28;20236;-70
2022/10/25 07:22:26;;;;;;;0.40;0.40;;;12.60;99.90;;;;;;5075248;28;20238;-69
2022/10/25 07:24:51;;;;;;;0.40;0.40;;;13.60;99.90;;;;;;5075136;28;20639;-72
2022/10/25 07:27:17;;;;;;;0.70;0.57;;;14.60;99.90;;;;;;5074151;28;20272;-70
2022/10/25 07:29:43;;;;;;;0.60;0.60;;;15.70;99.90;;;;;;5074655;28;20281;-70
2022/10/25 07:32:09;;;;;;;0.67;0.67;;;17.00;99.90;;;;;;5074925;28;20162;-72
2022/10/25 07:34:35;;;;;;;0.30;0.30;;;18.30;96.60;;;;;;5074925;28;20874;-69
2022/10/25 07:37:01;;;;;;;0.50;0.50;;;19.70;93.20;;;;;;5074920;28;20401;-72
2022/10/25 07:39:27;;;;;;;1.03;0.50;;;21.20;91.40;;;;;;5074496;28;20455;-69
2022/10/25 07:41:53;;;;;;;2.03;1.00;;;22.40;86.50;;;;;;5074655;28;20382;-72
2022/10/25 07:44:19;;;;;;;2.53;0.70;;;22.90;82.40;;;;;;5074680;28;20757;-73
2022/10/25 07:46:45;;;;;;;0.30;0.30;;;23.00;80.30;;;;;;5074639;28;20739;-69
2022/10/25 07:49:12;;;;;;;0.50;0.50;;;22.90;79.50;;;;;;5074237;28;20497;-70
2022/10/25 07:51:37;;;;;;;0.40;0.40;;;23.20;77.60;;;;;;5074663;28;20405;-70
2022/10/25 07:54:03;;;;;;;0.50;0.50;;;23.50;77.10;;;;;;5074380;28;20411;-69
2022/10/25 07:56:29;;;;;;;0.40;0.40;;;23.90;74.20;;;;;;5074383;28;20249;-68
2022/10/25 07:58:55;;;;;;;0.30;0.30;;;24.40;72.20;;;;;;5074248;28;20209;-70
2022/10/25 08:01:23;;;;;;;0.73;0.50;;;25.00;71.10;;;;;;5074330;28;20584;-70
2022/10/25 08:03:50;;;;;;;0.53;0.53;;;25.40;69.40;;;;;;5074288;28;20422;-71
2022/10/25 08:06:16;;;;;;;0.70;0.70;;;25.90;68.40;;;;;;5074365;28;20404;-70
2022/10/25 08:08:42;;;;;;;0.50;0.50;;;26.40;65.70;;;;;;5074250;28;20789;-68
2022/10/25 08:11:08;;;;;;;0.30;0.30;;;26.70;63.30;;;;;;5073911;28;20268;-68
2022/10/25 08:13:38;;;;;;;0.53;0.53;;;26.60;60.40;;;;;;5074119;28;20168;-67
2022/10/25 08:16:05;;;;;;;0.40;0.40;;;26.70;60.50;;;;;;5074059;28;20172;-71
2022/10/25 08:18:32;;;;;;;0.50;0.40;;;27.00;59.60;;;;;;5073934;28;20498;-69
2022/10/25 08:21:00;;;;;;;0.40;0.40;;;27.40;58.70;;;;;;5073933;28;20427;-68
2022/10/25 08:23:26;;;;;;;0.40;0.40;;;27.80;57.70;;;;;;5073823;28;20404;-68
2022/10/25 08:25:52;;;;;;;0.30;0.30;;;28.20;56.70;;;;;;5073667;28;20975;-69
2022/10/25 08:28:18;;;;;;;0.40;0.30;;;28.70;70.20;;;;;;5073992;28;20170;-68
2022/10/25 08:30:43;;;;;;;12.90;0.90;;;29.00;54.80;;;;;;5073667;28;20486;-71
2022/10/25 08:33:09;;;;;;;0.50;0.50;;;29.40;54.90;;;;;;5073860;28;20696;-70
2022/10/25 08:35:35;;;;;;;0.30;0.30;;;29.40;54.00;;;;;;5073815;28;20162;-69
2022/10/25 08:38:02;;;;;;;0.33;0.30;;;29.30;54.00;;;;;;5073631;28;20169;-69
2022/10/25 08:41:10;;;;;;;0.53;0.53;;;29.20;53.40;;;;;;5073514;28;20689;-71
2022/10/25 08:43:51;;;;;;;0.40;0.40;;;29.20;54.20;;;;;;5073629;28;20442;-71
2022/10/25 08:46:26;;;;;;;0.40;0.40;;;29.40;53.90;;;;;;5073499;28;20407;-71
2022/10/25 08:49:15;;;;;;;0.50;0.50;;;29.70;53.20;;;;;;5073464;28;20464;-70
2022/10/25 08:51:44;;;;;;;0.40;0.40;;;29.80;51.60;;;;;;5073979;28;20404;-72
2022/10/25 08:54:30;;;;;;;0.30;0.30;;;30.00;51.60;;;;;;5073833;28;20809;-70
2022/10/25 08:57:07;;;;;;;0.37;0.37;;;29.90;51.90;;;;;;5073536;28;20411;-70
2022/10/25 08:59:37;;;;;;;0.30;0.30;;;30.00;51.70;;;;;;5073176;28;20420;-69
2022/10/25 09:02:22;;;;;;;0.57;0.50;;;30.40;51.40;;;;;;5073651;28;20485;-70
2022/10/25 09:04:48;;;;;;;0.40;0.40;;;30.90;50.50;;;;;;5073333;28;20808;-68
2022/10/25 09:07:45;;;;;;;2.13;0.63;;;31.10;49.90;;;;;;5073384;28;20392;-70
2022/10/25 09:10:25;;;;;;;0.57;0.47;;;31.30;50.10;;;;;;5073234;28;20222;-71
2022/10/25 09:12:57;;;;;;;1.90;0.40;;;32.00;50.40;;;;;;5073475;28;20387;-70
2022/10/25 09:16:01;;;;;;;0.37;0.33;;;32.30;48.20;;;;;;5073510;28;20419;-69
2022/10/25 09:18:47;;;;;;;0.40;0.30;;;32.20;49.00;;;;;;5035103;28;20428;-71
2022/10/25 09:21:23;;;;;;;0.30;0.30;;;32.60;46.70;;;;;;5073375;28;20414;-68
2022/10/25 09:24:00;;;;;;;0.30;0.30;;;32.80;47.80;;;;;;5073762;28;20392;-70
2022/10/25 09:26:37;;;;;;;0.50;0.40;;;33.00;46.70;;;;;;5073147;28;20861;-71
2022/10/25 09:29:23;;;;;;;0.40;0.40;;;32.80;46.90;;;;;;5072979;28;20418;-69
2022/10/25 09:31:53;;;;;;;0.70;0.60;;;33.00;46.40;;;;;;5073133;28;20400;-70
2022/10/25 09:34:21;;;;;;;0.67;0.57;;;33.30;45.30;;;;;;5073351;28;20434;-71
2022/10/25 09:36:50;;;;;;;0.40;0.40;;;32.90;44.40;;;;;;5073124;28;20754;-71
2022/10/25 09:39:30;;;;;;;1.53;0.40;;;32.20;46.50;;;;;;5072883;28;20779;-68
2022/10/25 09:41:59;;;;;;;0.60;0.40;;;31.70;47.10;;;;;;5073234;28;20751;-68
2022/10/25 09:44:48;;;;;;;0.60;0.40;;;30.60;47.70;;;;;;5073045;28;20901;-71
2022/10/25 09:47:31;;;;;;;0.40;0.40;;;29.40;49.40;;;;;;5073045;28;20399;-68
2022/10/25 09:50:02;;;;;;;1.07;0.80;;;28.60;50.70;;;;;;5072790;28;21026;-70
2022/10/25 09:52:38;;;;;;;0.50;0.40;;;28.00;51.40;;;;;;5076988;28;20427;-71
2022/10/25 09:55:42;;;;;;;0.43;0.43;;;27.90;51.70;;;;;;5076788;28;20414;-68
2022/10/25 09:58:20;;;;;;;0.40;0.40;;;28.40;64.80;;;;;;4975966;28;20941;-70
2022/10/25 10:00:46;;;;;;;0.30;0.30;;;28.20;50.40;;;;;;5065847;28;20967;-69
2022/10/25 10:03:12;;;;;;;9.83;0.60;;;28.00;51.10;;;;;;5076708;28;20488;-68
2022/10/25 10:05:43;;;;;;;0.47;0.47;;;27.40;51.20;;;;;;5076537;28;20407;-71
2022/10/25 10:08:09;;;;;;;0.67;0.60;;;26.40;63.40;;;;;;5076705;28;20930;-69
2022/10/25 10:10:36;;;;;;;0.30;0.30;;;26.40;52.90;;;;;;5076309;28;20448;-70
2022/10/25 10:13:11;;;;;;;1.13;0.50;;;25.90;54.70;;;;;;5076635;28;20201;-70
2022/10/25 10:15:51;;;;;;;0.30;0.30;;;25.50;54.50;;;;;;5076557;28;20395;-70
2022/10/25 10:18:22;;;;;;;0.67;0.67;;;25.00;74.00;;;;;;5076658;28;20775;-69
2022/10/25 10:21:02;;;;;;;0.60;0.57;;;24.80;56.40;;;;;;5076248;28;20449;-69
2022/10/25 10:23:35;;;;;;;0.30;0.30;;;24.70;56.20;;;;;;5076344;28;20427;-68
2022/10/25 10:26:09;;;;;;;0.70;0.57;;;24.20;55.10;;;;;;5076092;28;20518;-71
2022/10/25 10:28:35;;;;;;;0.60;0.60;;;23.50;56.60;;;;;;5076355;28;20402;-68
2022/10/25 10:31:04;;;;;;;0.60;0.40;;;23.30;57.80;;;;;;5075885;28;20542;-70
2022/10/25 10:33:32;;;;;;;0.30;0.30;;;22.90;57.60;;;;;;5076238;28;20426;-70
2022/10/25 10:36:19;;;;;;;0.30;0.30;;;22.90;59.60;;;;;;5076191;28;20745;-69
2022/10/25 10:38:46;;;;;;;0.40;0.40;;;22.80;59.40;;;;;;5076264;28;20471;-70
2022/10/25 10:41:23;;;;;;;0.40;0.40;;;22.50;59.30;;;;;;5075970;28;20408;-69
2022/10/25 10:43:49;;;;;;;0.40;0.40;;;22.20;60.20;;;;;;5075968;28;20396;-68
2022/10/25 10:46:18;;;;;;;0.70;0.50;;;21.80;60.90;;;;;;5076004;28;20400;-67
2022/10/25 10:48:51;;;;;;;1.33;0.80;;;21.50;61.50;;;;;;5075794;28;20438;-69
2022/10/25 10:51:19;;;;;;;0.30;0.30;;;21.40;62.80;;;;;;5075899;28;20822;-69
2022/10/25 10:53:45;;;;;;;0.50;0.50;;;21.20;63.10;;;;;;5075694;28;20539;-70
2022/10/25 10:56:20;;;;;;;0.40;0.40;;;21.10;64.10;;;;;;5075628;28;20406;-69
2022/10/25 10:58:49;;;;;;;0.30;0.30;;;21.00;64.10;;;;;;5075652;28;20430;-68
2022/10/25 11:01:28;;;;;;;0.60;0.60;;;20.80;62.60;;;;;;5075410;28;20408;-68
2022/10/25 11:03:56;;;;;;;0.40;0.40;;;20.50;62.90;;;;;;5074775;28;20399;-69
2022/10/25 11:06:31;;;;;;;0.30;0.30;;;20.20;62.90;;;;;;5075856;28;20806;-69
2022/10/25 11:09:11;;;;;;;0.40;0.40;;;20.30;67.90;;;;;;5075198;28;20462;-67
2022/10/25 11:11:39;;;;;;;0.40;0.40;;;20.30;65.10;;;;;;5074233;28;20503;-70
2022/10/25 11:14:10;;;;;;;0.47;0.47;;;20.40;77.00;;;;;;5075428;28;20415;-69
2022/10/25 11:16:54;;;;;;;0.53;0.53;;;20.40;88.70;;;;;;5075514;28;20407;-68
2022/10/25 11:19:48;;;;;;;0.30;0.30;;;20.30;68.50;;;;;;5074995;28;20473;-68
2022/10/25 11:22:18;;;;;;;0.30;0.30;;;20.40;68.40;;;;;;5075375;28;20477;-68
2022/10/25 11:25:11;;;;;;;0.30;0.30;;;20.40;66.00;;;;;;5075353;28;20403;-69
2022/10/25 11:27:44;;;;;;;0.40;0.40;;;20.30;66.40;;;;;;5075141;28;20438;-68
2022/10/25 11:30:18;;;;;;;0.97;0.80;;;20.30;71.70;;;;;;5074741;28;20454;-70
2022/10/25 11:33:15;;;;;;;0.30;0.30;;;20.30;74.80;;;;;;5075145;28;20754;-69
2022/10/25 11:36:00;;;;;;;0.30;0.30;;;20.40;69.70;;;;;;5075293;28;20873;-70
2022/10/25 11:38:45;;;;;;;0.30;0.30;;;20.50;67.50;;;;;;5075029;28;20426;-69
2022/10/25 11:41:34;;;;;;;0.50;0.50;;;20.70;62.30;;;;;;5074756;28;20515;-70
2022/10/25 11:44:26;;;;;;;0.40;0.30;;;20.80;58.30;;;;;;5074929;28;20403;-69
2022/10/25 11:47:12;;;;;;;0.30;0.30;;;20.90;61.10;;;;;;5074887;28;20400;-68
2022/10/25 11:49:52;;;;;;;0.40;0.40;;;20.70;60.20;;;;;;5074060;28;20503;-70
2022/10/25 11:52:38;;;;;;;0.40;0.40;;;20.50;60.00;;;;;;5074763;28;20429;-69
2022/10/25 11:55:46;;;;;;;0.30;0.30;;;20.60;62.30;;;;;;5074456;28;20506;-70
2022/10/25 11:58:44;;;;;;;0.30;0.30;;;20.50;80.50;;;;;;5074360;28;20451;-70
2022/10/25 12:01:16;;;;;;;0.30;0.30;;;20.60;63.60;;;;;;5074328;28;20403;-68
2022/10/25 12:03:47;;;;;;;1.83;1.73;;;20.60;60.70;;;;;;5074440;28;20403;-70
2022/10/25 12:06:39;;;;;;;0.30;0.30;;;20.50;65.50;;;;;;5074367;28;20398;-69
2022/10/25 12:09:32;;;;;;;0.40;0.40;;;20.40;67.20;;;;;;5073900;28;20468;-69
2022/10/25 12:12:03;;;;;;;0.30;0.30;;;20.10;72.00;;;;;;5074487;28;20406;-68
2022/10/25 12:14:39;;;;;;;0.40;0.40;;;19.80;69.30;;;;;;5073888;28;20399;-68
2022/10/25 12:17:24;;;;;;;0.30;0.30;;;19.60;69.50;;;;;;5074190;28;20395;-69
2022/10/25 12:19:54;;;;;;;0.30;0.30;;;19.40;69.50;;;;;;5073917;28;20422;-70
2022/10/25 12:22:27;;;;;;;0.30;0.30;;;19.40;75.80;;;;;;5074155;28;20459;-68
2022/10/25 12:25:04;;;;;;;0.30;0.30;;;19.20;68.80;;;;;;5074608;28;20406;-67
2022/10/25 12:27:31;;;;;;;0.30;0.30;;;19.10;66.80;;;;;;5073874;28;20899;-68
2022/10/25 12:30:12;;;;;;;0.30;0.30;;;19.10;70.80;;;;;;5073567;28;20488;-68
2022/10/25 12:32:44;;;;;;;0.30;0.30;;;18.90;77.30;;;;;;5074016;28;20404;-69
2022/10/25 12:35:41;;;;;;;0.50;0.47;;;18.50;79.70;;;;;;5073759;28;20391;-70
2022/10/25 12:38:14;;;;;;;0.30;0.30;;;17.70;93.50;;;;;;5072947;28;20779;-70
2022/10/25 12:40:44;;;;;;;0.30;0.30;;;17.80;82.10;;;;;;5073758;28;20396;-69
2022/10/25 12:43:32;;;;;;;0.40;0.40;;;17.60;82.50;;;;;;5073826;28;20768;-70
2022/10/25 12:46:15;;;;;;;0.30;0.30;;;17.40;78.50;;;;;;5073708;28;20419;-67
2022/10/25 12:49:16;;;;;;;0.30;0.30;;;17.30;78.70;;;;;;5073778;28;20426;-68
2022/10/25 12:52:08;;;;;;;0.40;0.40;;;17.10;80.20;;;;;;4973012;28;20855;-69
2022/10/25 12:55:12;;;;;;;0.30;0.30;;;16.90;85.70;;;;;;5070404;28;20411;-69
2022/10/25 12:57:58;;;;;;;0.30;0.30;;;16.70;87.70;;;;;;5035075;28;20782;-67
2022/10/25 13:00:24;;;;;;;0.60;0.50;;;16.50;90.00;;;;;;5073276;28;20445;-67
2022/10/25 13:03:36;;;;;;;0.30;0.30;;;16.30;90.10;;;;;;5073510;28;20909;-67
2022/10/25 13:06:26;;;;;;;0.30;0.30;;;16.10;92.10;;;;;;5073669;28;20392;-68
2022/10/25 13:08:58;;;;;;;0.40;0.40;;;15.80;92.50;;;;;;5073167;28;20415;-70
2022/10/25 13:11:39;;;;;;;0.40;0.40;;;15.70;93.10;;;;;;5073596;28;20453;-69